| |
Missouri Department of Transportation

Social Media Facebook Twitter Flickr Instagram YouTube RSS

Current AWOS Information

 
AWOS Home - General Info for all Airports
Current AWOS for all Airports - Current METAR for all Airports
Glossary - Disclaimer - Other Links


HARRISONVILLE--LAWRENCE SMITH MEMORIAL--KLRY
 
Recent AWOS History
 
05/24/15     10:02 PM CDT      03:02 GMT
Air Temperature 64°F (18°C ) 1st Cloud Layer Scattered at 2,900 feet
Dew Point 62°F (17°C) 2nd Cloud Layer Broken at 6,500 feet
Barometric Pressure 30.06 in Hg. 3rd Cloud Layer Overcast at 7,500 feet
Wind Speed 8 mph (7 knots) Density Altitude  
Peak Wind Gusts   Variable Wind Directions  
Wind Direction Quadrant(100°) Variable Visibility  
Visibility 5 statute miles  

Thunderstorm and Precipitation Identification:  Moderate Rain
Thunderstorm Remarks:  Lightning Distant South-West

Current METAR Record: METAR KLRY 240304Z AUTO 10007KT 5SM -RA SCT029 BKN065 OVC075 18/17 A3006 RMK AO2 LTG DSNT SW P0002

 

 

 

About Us
How Do I...
Contact Us
Missouri Department of Transportation
Central Office
105 W. Capitol Avenue
Jefferson City, MO 65102
1-888-ASK-MODOT (275-6636)
1-866-831-6277 (Motor Carrier Services)
Driver's License Offices
horz_bar
| | |
Missouri State Government
© 2013 Missouri Department of Transportation. All Rights Reserved.   Privacy Policy.
 
 
 
 
RSS FeedYoutubeBlogFlickrTwitter Facebook